Time;durP1;ratioP1;P1;durP2;ratioP2;P2;SDS_P1;SDS_P2;PMS_P1;PMS_P2;Temp;Humidity;BMP_temperature;BMP_pressure;BME280_temperature;BME280_humidity;BME280_pressure;Samples;Min_cycle;Max_cycle;Signal;HPM_P1;HPM_P2
2021/09/29 00:01:29;;;;;;;;;;;;;;;10.63;100.00;101477.13;4994682;28;20016;-73
2021/09/29 00:03:55;;;;;;;;;;;;;;;10.64;100.00;101473.44;4993558;28;19930;-73
2021/09/29 00:06:22;;;;;;;;;;;;;;;10.66;100.00;101470.63;4994595;28;19925;-73
2021/09/29 00:08:48;;;;;;;;;;;;;;;10.69;100.00;101471.28;4994564;28;19932;-73
2021/09/29 00:11:14;;;;;;;;;;;;;;;10.73;100.00;101471.94;4993238;28;20117;-73
2021/09/29 00:13:40;;;;;;;;;;;;;;;10.77;100.00;101472.59;4994541;28;20344;-73
2021/09/29 00:16:07;;;;;;;;;;;;;;;10.83;100.00;101464.00;4994485;28;19925;-73
2021/09/29 00:18:34;;;;;;;;;;;;;;;10.87;100.00;101463.66;4994512;28;20016;-73
2021/09/29 00:21:01;;;;;;;;;;;;;;;10.92;100.00;101460.66;4994175;28;20016;-73
2021/09/29 00:23:27;;;;;;;;;;;;;;;10.96;100.00;101458.59;4994296;28;20020;-73
2021/09/29 00:25:53;;;;;;;;;;;;;;;10.99;100.00;101456.50;4994392;28;19962;-73
2021/09/29 00:28:20;;;;;;;;;;;;;;;11.03;100.00;101454.44;4994237;28;19985;-73
2021/09/29 00:31:01;;;;;;;;;;;;;;;10.98;100.00;101449.34;4994063;28;20024;-73
2021/09/29 00:33:28;;;;;;;;;;;;;;;10.95;100.00;101445.97;4994208;28;19926;-73
2021/09/29 00:35:55;;;;;;;;;;;;;;;10.91;100.00;101442.59;4994001;28;20020;-73
2021/09/29 00:38:22;;;;;;;;;;;;;;;10.86;100.00;101442.06;4994317;28;20016;-73
2021/09/29 00:40:48;;;;;;;;;;;;;;;10.75;100.00;101433.81;4993944;28;20021;-73
2021/09/29 00:43:14;;;;;;;;;;;;;;;10.66;100.00;101435.31;4994111;28;20424;-73
2021/09/29 00:45:41;;;;;;;;;;;;;;;10.58;100.00;101435.00;4993952;28;20393;-73
2021/09/29 00:48:07;;;;;;;;;;;;;;;10.51;100.00;101423.69;4992743;28;20021;-73
2021/09/29 00:50:35;;;;;;;;;;;;;;;10.43;100.00;101426.09;4993800;28;20368;-73
2021/09/29 00:53:03;;;;;;;;;;;;;;;10.33;100.00;101421.25;4993728;28;20344;-73
2021/09/29 00:55:29;;;;;;;;;;;;;;;10.26;100.00;101419.97;4993825;28;20337;-73
2021/09/29 00:57:56;;;;;;;;;;;;;;;10.24;100.00;101412.91;4993678;28;20017;-73
2021/09/29 01:00:22;;;;;;;;;;;;;;;10.21;100.00;101414.84;4993543;28;20414;-73
2021/09/29 01:02:49;;;;;;;;;;;;;;;10.20;100.00;101423.09;4993467;28;20028;-73
2021/09/29 01:05:15;;;;;;;;;;;;;;;10.13;100.00;101414.50;4993712;28;19954;-73
2021/09/29 01:07:47;;;;;;;;;;;;;;;10.09;100.00;101412.97;4993418;28;20460;-73
2021/09/29 01:10:18;;;;;;;;;;;;;;;10.00;100.00;101405.47;4992185;28;19930;-73
2021/09/29 01:12:47;;;;;;;;;;;;;;;10.01;100.00;101404.50;4995909;28;19948;-73
2021/09/29 01:15:19;;;;;;;;;;;;;;;10.05;100.00;101400.59;4993509;28;19932;-73
2021/09/29 01:17:47;;;;;;;;;;;;;;;10.12;100.00;101391.03;4993316;28;20024;-73
2021/09/29 01:20:15;;;;;;;;;;;;;;;10.18;100.00;101390.63;4993476;28;19925;-73
2021/09/29 01:22:51;;;;;;;;;;;;;;;10.24;100.00;101393.91;4993214;28;20020;-73
2021/09/29 01:25:23;;;;;;;;;;;;;;;10.32;100.00;101383.38;4993363;28;19925;-73
2021/09/29 01:27:51;;;;;;;;;;;;;;;10.39;100.00;101387.41;4993038;28;19925;-73
2021/09/29 01:30:18;;;;;;;;;;;;;;;10.48;100.00;101384.06;4991838;28;19926;-73
2021/09/29 01:32:44;;;;;;;;;;;;;;;10.55;100.00;101385.38;4992455;28;20304;-73
2021/09/29 01:35:11;;;;;;;;;;;;;;;10.60;100.00;101376.03;4993107;28;19930;-73
2021/09/29 01:37:38;;;;;;;;;;;;;;;10.67;100.00;101374.63;4993141;28;20367;-73
2021/09/29 01:40:05;;;;;;;;;;;;;;;10.72;100.00;101376.03;4992814;28;20353;-73
2021/09/29 01:42:32;;;;;;;;;;;;;;;10.79;100.00;101376.44;4993261;28;19932;-73
2021/09/29 01:44:59;;;;;;;;;;;;;;;10.84;100.00;101376.13;4992855;28;20024;-73
2021/09/29 01:47:25;;;;;;;;;;;;;;;10.87;100.00;101375.91;4992731;28;19926;-73
2021/09/29 01:49:54;;;;;;;;;;;;;;;10.88;100.00;101377.66;4992573;28;20020;-73
2021/09/29 01:52:21;;;;;;;;;;;;;;;10.91;100.00;101368.41;4992744;28;20294;-73
2021/09/29 01:54:48;;;;;;;;;;;;;;;10.95;100.00;101364.50;4992671;28;19948;-73
2021/09/29 01:57:15;;;;;;;;;;;;;;;10.99;100.00;101363.28;4992604;28;20018;-73
2021/09/29 01:59:42;;;;;;;;;;;;;;;11.05;100.00;101358.25;4992601;28;20012;-73
2021/09/29 02:02:11;;;;;;;;;;;;;;;11.07;100.00;101354.56;4992632;28;19957;-73
2021/09/29 02:04:42;;;;;;;;;;;;;;;11.10;100.00;101352.47;4992516;28;20457;-73
2021/09/29 02:07:09;;;;;;;;;;;;;;;11.12;100.00;101361.41;4991122;28;19925;-73
2021/09/29 02:09:35;;;;;;;;;;;;;;;11.15;100.00;101358.44;4992453;28;20461;-73
2021/09/29 02:12:01;;;;;;;;;;;;;;;11.20;100.00;101356.25;4992517;28;20397;-73
2021/09/29 02:14:28;;;;;;;;;;;;;;;11.19;100.00;101354.53;4992636;28;20044;-73
2021/09/29 02:16:55;;;;;;;;;;;;;;;11.21;100.00;101355.28;4992296;28;20016;-73
2021/09/29 02:19:24;;;;;;;;;;;;;;;11.24;100.00;101359.63;4992361;28;20024;-73
2021/09/29 02:21:51;;;;;;;;;;;;;;;11.25;100.00;101353.22;4992367;28;20464;-73
2021/09/29 02:24:17;;;;;;;;;;;;;;;11.32;100.00;101351.78;4992449;28;19936;-73
2021/09/29 02:26:44;;;;;;;;;;;;;;;11.36;100.00;101345.13;4992163;28;20419;-73
2021/09/29 02:29:11;;;;;;;;;;;;;;;11.39;100.00;101344.03;4991153;28;19926;-74
2021/09/29 02:31:37;;;;;;;;;;;;;;;11.42;100.00;101341.06;4992347;28;20110;-73
2021/09/29 02:34:04;;;;;;;;;;;;;;;11.44;100.00;101344.56;4992321;28;20372;-74
2021/09/29 02:36:32;;;;;;;;;;;;;;;11.46;100.00;101344.44;4991159;28;19929;-73
2021/09/29 02:38:58;;;;;;;;;;;;;;;11.47;100.00;101340.75;4992291;28;19926;-73
2021/09/29 02:41:25;;;;;;;;;;;;;;;11.48;100.00;101340.63;4992184;28;19926;-73
2021/09/29 02:43:51;;;;;;;;;;;;;;;11.50;100.00;101345.94;4992220;28;20000;-73
2021/09/29 02:46:17;;;;;;;;;;;;;;;11.51;100.00;101331.38;4996171;28;20017;-73
2021/09/29 02:48:44;;;;;;;;;;;;;;;11.55;100.00;101335.59;4994930;28;19932;-73
2021/09/29 02:51:10;;;;;;;;;;;;;;;11.56;100.00;101335.47;4996081;28;20025;-73
2021/09/29 02:53:38;;;;;;;;;;;;;;;11.59;100.00;101328.94;4994858;28;20368;-73
2021/09/29 02:56:04;;;;;;;;;;;;;;;11.62;100.00;101327.81;4996198;28;20374;-73
2021/09/29 02:58:31;;;;;;;;;;;;;;;11.65;100.00;101328.47;4996252;28;20363;-73
2021/09/29 03:00:59;;;;;;;;;;;;;;;11.67;100.00;101326.47;4995704;28;19980;-73
2021/09/29 03:03:25;;;;;;;;;;;;;;;11.70;100.00;101322.66;4995747;28;20326;-73
2021/09/29 03:05:52;;;;;;;;;;;;;;;11.73;100.00;101320.59;4995698;28;20025;-73
2021/09/29 03:08:18;;;;;;;;;;;;;;;11.77;100.00;101320.34;4996039;28;20317;-73
2021/09/29 03:10:46;;;;;;;;;;;;;;;11.77;100.00;101315.78;4995924;28;19972;-73
2021/09/29 03:13:13;;;;;;;;;;;;;;;11.79;100.00;101310.22;4995663;28;19929;-73
2021/09/29 03:15:39;;;;;;;;;;;;;;;11.82;100.00;101313.56;4995735;28;20032;-73
2021/09/29 03:18:06;;;;;;;;;;;;;;;11.85;100.00;101312.44;4995530;28;19932;-73
2021/09/29 03:20:32;;;;;;;;;;;;;;;11.87;100.00;101310.50;4998163;28;20091;-73
2021/09/29 03:22:59;;;;;;;;;;;;;;;11.89;100.00;101309.41;4994227;28;19926;-73
2021/09/29 03:25:26;;;;;;;;;;;;;;;11.93;100.00;101312.72;4994151;28;19926;-75
2021/09/29 03:27:54;;;;;;;;;;;;;;;11.99;100.00;101311.44;4995287;28;19969;-74
2021/09/29 03:30:20;;;;;;;;;;;;;;;12.03;100.00;101307.47;4995182;28;20300;-74
2021/09/29 03:32:47;;;;;;;;;;;;;;;12.10;100.00;101307.88;4994930;28;20028;-74
2021/09/29 03:35:13;;;;;;;;;;;;;;;12.14;100.00;101312.94;4995097;28;20275;-74
2021/09/29 03:37:40;;;;;;;;;;;;;;;12.17;100.00;101311.81;4994844;28;20012;-74
2021/09/29 03:40:07;;;;;;;;;;;;;;;12.21;100.00;101308.75;4995178;28;20408;-75
2021/09/29 03:42:33;;;;;;;;;;;;;;;12.25;100.00;101294.91;4994964;28;19957;-74
2021/09/29 03:45:01;;;;;;;;;;;;;;;12.28;100.00;101297.38;4994965;28;19925;-74
2021/09/29 03:47:27;;;;;;;;;;;;;;;12.30;100.00;101300.84;5000922;28;20037;-74
2021/09/29 03:49:54;;;;;;;;;;;;;;;12.31;100.00;101291.69;5007116;28;20020;-74
2021/09/29 03:52:20;;;;;;;;;;;;;;;12.32;100.00;101282.53;4994975;28;20368;-74
2021/09/29 03:54:46;;;;;;;;;;;;;;;12.36;100.00;101290.34;4997465;28;19926;-74
2021/09/29 03:57:12;;;;;;;;;;;;;;;12.39;100.00;101281.91;4995214;28;19932;-74
2021/09/29 03:59:39;;;;;;;;;;;;;;;12.41;100.00;101272.75;4994476;28;20024;-74
2021/09/29 04:02:06;;;;;;;;;;;;;;;12.40;100.00;101274.63;4994896;28;20024;-75
2021/09/29 04:04:33;;;;;;;;;;;;;;;12.43;100.00;101271.66;5014338;28;19926;-75
2021/09/29 04:06:59;;;;;;;;;;;;;;;12.43;100.00;101270.78;5012123;28;20012;-75
2021/09/29 04:09:25;;;;;;;;;;;;;;;12.44;100.00;101273.38;5002008;28;20020;-74
2021/09/29 04:11:52;;;;;;;;;;;;;;;12.46;100.00;101271.38;5012879;28;20029;-75
2021/09/29 04:14:20;;;;;;;;;;;;;;;12.49;100.00;101273.88;5003738;28;19929;-75
2021/09/29 04:16:47;;;;;;;;;;;;;;;12.49;100.00;101268.44;4994293;28;20424;-76
2021/09/29 04:19:15;;;;;;;;;;;;;;;12.55;100.00;101261.63;4995324;28;19937;-75
2021/09/29 04:21:41;;;;;;;;;;;;;;;12.56;100.00;101261.50;4994429;28;20013;-76
2021/09/29 04:24:09;;;;;;;;;;;;;;;12.58;100.00;101266.81;5005064;28;20419;-74
2021/09/29 04:26:36;;;;;;;;;;;;;;;12.61;100.00;101265.69;5013409;28;19925;-74
2021/09/29 04:29:02;;;;;;;;;;;;;;;12.60;100.00;101266.69;5012403;28;19929;-75
2021/09/29 04:31:28;;;;;;;;;;;;;;;12.59;100.00;101257.66;5011698;28;19925;-74
2021/09/29 04:33:54;;;;;;;;;;;;;;;12.59;100.00;101254.94;5013323;28;19957;-75
2021/09/29 04:36:22;;;;;;;;;;;;;;;12.61;100.00;101257.53;5013041;28;19937;-74
2021/09/29 04:38:48;;;;;;;;;;;;;;;12.60;100.00;101247.63;5013164;28;20084;-74
2021/09/29 04:41:14;;;;;;;;;;;;;;;12.62;100.00;101248.38;5006158;28;20051;-74
2021/09/29 04:43:41;;;;;;;;;;;;;;;12.66;100.00;101252.59;4993678;28;19964;-74
2021/09/29 04:46:07;;;;;;;;;;;;;;;12.68;100.00;101245.13;5000176;28;19925;-74
2021/09/29 04:48:33;;;;;;;;;;;;;;;12.69;100.00;101241.41;5012090;28;20301;-74
2021/09/29 04:51:00;;;;;;;;;;;;;;;12.68;100.00;101236.97;5013555;28;19936;-74
2021/09/29 04:53:27;;;;;;;;;;;;;;;12.68;100.00;101236.97;5013170;28;19957;-74
2021/09/29 04:55:58;;;;;;;;;;;;;;;12.72;100.00;101233.03;5013408;28;20020;-74
2021/09/29 04:58:24;;;;;;;;;;;;;;;12.73;100.00;101237.44;5013395;28;19925;-74
2021/09/29 05:00:50;;;;;;;;;;;;;;;12.74;100.00;101239.19;5011656;28;20382;-74
2021/09/29 05:03:18;;;;;;;;;;;;;;;12.72;100.00;101235.75;5013307;28;19935;-74
2021/09/29 05:05:45;;;;;;;;;;;;;;;12.75;100.00;101230.03;5013153;28;19932;-74
2021/09/29 05:08:18;;;;;;;;;;;;;;;12.77;100.00;101238.06;5012248;28;19925;-74
2021/09/29 05:10:50;;;;;;;;;;;;;;;12.75;100.00;101235.47;5012829;28;19925;-74
2021/09/29 05:13:17;;;;;;;;;;;;;;;12.79;100.00;101225.22;5013190;28;20407;-74
2021/09/29 05:15:44;;;;;;;;;;;;;;;12.79;100.00;101231.50;5009689;28;19925;-74
2021/09/29 05:18:10;;;;;;;;;;;;;;;12.85;100.00;101224.69;5012818;28;19925;-74
2021/09/29 05:20:37;;;;;;;;;;;;;;;12.88;100.00;101228.03;5012753;28;20012;-74
2021/09/29 05:23:04;;;;;;;;;;;;;;;12.90;100.00;101231.47;5011784;28;20007;-75
2021/09/29 05:25:30;;;;;;;;;;;;;;;12.92;100.00;101225.03;4995265;28;20008;-74
2021/09/29 05:27:58;;;;;;;;;;;;;;;12.95;100.00;101225.66;5002494;28;19925;-75
2021/09/29 05:30:24;;;;;;;;;;;;;;;13.02;100.00;101226.00;5003291;28;19929;-75
2021/09/29 05:32:51;;;;;;;;;;;;;;;13.02;100.00;101226.00;5024388;28;20408;-73
2021/09/29 05:35:17;;;;;;;;;;;;;;;13.06;100.00;101222.88;5010208;28;19925;-73
2021/09/29 05:37:43;;;;;;;;;;;;;;;13.09;100.00;101226.34;5009333;28;19931;-73
2021/09/29 05:40:10;;;;;;;;;;;;;;;13.09;100.00;101224.47;5001629;28;19926;-73
2021/09/29 05:42:36;;;;;;;;;;;;;;;13.08;100.00;101217.31;5031271;28;19964;-73
2021/09/29 05:45:04;;;;;;;;;;;;;;;13.14;100.00;101213.22;5019261;28;19925;-73
2021/09/29 05:47:31;;;;;;;;;;;;;;;13.13;100.00;101212.31;5012220;28;19973;-74
2021/09/29 05:49:57;;;;;;;;;;;;;;;13.18;100.00;101209.22;5003554;28;20025;-75
2021/09/29 05:52:23;;;;;;;;;;;;;;;13.21;100.00;101215.28;4992411;28;20017;-72
2021/09/29 05:54:49;;;;;;;;;;;;;;;13.20;100.00;101202.66;4995957;28;19930;-74
2021/09/29 05:57:16;;;;;;;;;;;;;;;13.27;100.00;101204.84;4999290;28;20386;-73
2021/09/29 05:59:42;;;;;;;;;;;;;;;13.26;100.00;101201.25;4995033;28;19969;-74
2021/09/29 06:02:11;;;;;;;;;;;;;;;13.29;100.00;101202.84;4997414;28;19961;-74
2021/09/29 06:04:38;;;;;;;;;;;;;;;13.29;100.00;101200.13;5009270;28;19925;-74
2021/09/29 06:07:05;;;;;;;;;;;;;;;13.30;100.00;101196.41;4993131;28;19984;-74
2021/09/29 06:09:31;;;;;;;;;;;;;;;13.32;100.00;101194.41;4992169;28;19980;-74
2021/09/29 06:11:57;;;;;;;;;;;;;;;13.32;100.00;101189.84;5006217;28;19929;-74
2021/09/29 06:14:23;;;;;;;;;;;;;;;13.33;100.00;101191.53;4993258;28;19936;-74
2021/09/29 06:16:57;;;;;;;;;;;;;;;13.35;100.00;101194.16;4992028;28;19930;-74
2021/09/29 06:19:25;;;;;;;;;;;;;;;13.38;100.00;101192.06;5009022;28;19925;-74
2021/09/29 06:21:51;;;;;;;;;;;;;;;13.39;100.00;101191.06;5005519;28;19932;-74
2021/09/29 06:24:17;;;;;;;;;;;;;;;13.44;100.00;101195.25;5007926;28;19933;-74
2021/09/29 06:26:44;;;;;;;;;;;;;;;13.43;100.00;101183.50;5005657;28;20460;-74
2021/09/29 06:29:10;;;;;;;;;;;;;;;13.41;100.00;101187.34;4997548;28;20347;-74
2021/09/29 06:31:36;;;;;;;;;;;;;;;13.36;100.00;101174.97;4991663;28;19926;-74
2021/09/29 06:34:03;;;;;;;;;;;;;;;13.37;100.00;101181.28;5005100;28;19926;-74
2021/09/29 06:36:31;;;;;;;;;;;;;;;13.36;100.00;101171.38;4996263;28;19984;-74
2021/09/29 06:38:57;;;;;;;;;;;;;;;13.41;100.00;101180.03;4991835;28;20036;-74
2021/09/29 06:41:24;;;;;;;;;;;;;;;13.41;100.00;101182.75;5000789;28;20459;-74
2021/09/29 06:43:50;;;;;;;;;;;;;;;13.44;100.00;101184.34;5000469;28;19933;-73
2021/09/29 06:46:16;;;;;;;;;;;;;;;13.44;100.00;101182.50;5007257;28;20373;-72
2021/09/29 06:48:42;;;;;;;;;;;;;;;13.51;100.00;101178.22;5003588;28;19956;-72
2021/09/29 06:51:09;;;;;;;;;;;;;;;13.58;100.00;101175.00;4997608;28;19926;-72
2021/09/29 06:53:37;;;;;;;;;;;;;;;13.62;100.00;101179.19;5005988;28;20021;-72
2021/09/29 06:56:06;;;;;;;;;;;;;;;13.62;100.00;101173.72;4991627;28;20107;-74
2021/09/29 06:58:32;;;;;;;;;;;;;;;13.68;100.00;101164.97;4995995;28;19929;-74
2021/09/29 07:00:59;;;;;;;;;;;;;;;13.68;100.00;101152.22;5011006;28;20289;-74
2021/09/29 07:03:25;;;;;;;;;;;;;;;13.76;100.00;101148.78;5007000;28;19938;-74
2021/09/29 07:05:51;;;;;;;;;;;;;;;13.77;100.00;101150.53;4995948;28;19961;-74
2021/09/29 07:08:18;;;;;;;;;;;;;;;13.80;100.00;101154.84;5009736;28;20024;-74
2021/09/29 07:10:45;;;;;;;;;;;;;;;13.84;100.00;101145.41;4991434;28;19932;-73
2021/09/29 07:13:11;;;;;;;;;;;;;;;13.82;100.00;101137.34;5007313;28;20028;-72
2021/09/29 07:15:39;;;;;;;;;;;;;;;13.89;100.00;101133.06;4997126;28;20010;-72
2021/09/29 07:18:07;;;;;;;;;;;;;;;13.86;100.00;101130.63;5005348;28;20000;-72
2021/09/29 07:20:34;;;;;;;;;;;;;;;13.94;100.00;101123.63;5010410;28;20395;-72
2021/09/29 07:23:00;;;;;;;;;;;;;;;13.95;100.00;101125.34;5010941;28;20029;-72
2021/09/29 07:25:28;;;;;;;;;;;;;;;13.97;100.00;101126.06;5009262;28;20469;-72
2021/09/29 07:27:55;;;;;;;;;;;;;;;14.08;100.00;101125.97;5006296;28;20032;-72
2021/09/29 07:30:22;;;;;;;;;;;;;;;14.11;100.00;101119.38;5011584;28;19980;-72
2021/09/29 07:32:51;;;;;;;;;;;;;;;14.15;100.00;101116.25;5012804;28;19932;-72
2021/09/29 07:35:18;;;;;;;;;;;;;;;14.25;100.00;101120.88;5014743;28;19953;-73
2021/09/29 07:37:44;;;;;;;;;;;;;;;14.23;100.00;101102.75;5007549;28;19926;-72
2021/09/29 07:40:11;;;;;;;;;;;;;;;14.29;100.00;101106.78;4993532;28;19930;-73
2021/09/29 07:42:38;;;;;;;;;;;;;;;14.31;100.00;101098.44;5010595;28;20016;-73
2021/09/29 07:45:07;;;;;;;;;;;;;;;14.30;100.00;101100.31;5014397;28;20451;-72
2021/09/29 07:47:34;;;;;;;;;;;;;;;14.35;100.00;101106.25;5002070;28;19967;-72
2021/09/29 07:50:00;;;;;;;;;;;;;;;14.52;100.00;101092.88;5007030;28;20358;-73
2021/09/29 07:52:27;;;;;;;;;;;;;;;14.60;100.00;101084.00;4996846;28;19940;-72
2021/09/29 07:54:53;;;;;;;;;;;;;;;14.68;100.00;101081.44;5013306;28;20461;-73
2021/09/29 07:57:19;;;;;;;;;;;;;;;14.77;100.00;101075.13;5012779;28;20447;-72
2021/09/29 07:59:46;;;;;;;;;;;;;;;14.84;100.00;101078.97;5011110;28;20344;-72
2021/09/29 08:02:13;;;;;;;;;;;;;;;14.84;100.00;101073.53;5002880;28;19960;-73
2021/09/29 08:04:40;;;;;;;;;;;;;;;14.79;100.00;101075.84;5013933;28;20024;-72
2021/09/29 08:07:07;;;;;;;;;;;;;;;14.76;100.00;101069.81;5012753;28;19933;-72
2021/09/29 08:09:33;;;;;;;;;;;;;;;14.69;100.00;101062.16;5012235;28;19932;-72
2021/09/29 08:11:59;;;;;;;;;;;;;;;14.74;100.00;101061.75;5005205;28;20009;-72
2021/09/29 08:14:26;;;;;;;;;;;;;;;14.76;100.00;101059.72;5009316;28;19925;-72
2021/09/29 08:16:52;;;;;;;;;;;;;;;14.87;100.00;101062.31;5004923;28;19965;-73
2021/09/29 08:19:20;;;;;;;;;;;;;;;14.96;100.00;101062.44;5002696;28;19926;-72
2021/09/29 08:21:48;;;;;;;;;;;;;;;14.99;100.00;101051.22;4993835;28;19926;-73
2021/09/29 08:24:17;;;;;;;;;;;;;;;15.03;100.00;101045.34;4994261;28;19925;-69
2021/09/29 08:26:54;;;;;;;;;;;;;;;15.09;100.00;101045.75;5005666;28;19926;-72
2021/09/29 08:29:34;;;;;;;;;;;;;;;15.18;100.00;101043.00;5013180;28;19944;-72
2021/09/29 08:32:13;;;;;;;;;;;;;;;15.23;100.00;101048.88;4993827;28;19929;-72
2021/09/29 08:34:45;;;;;;;;;;;;;;;15.26;100.00;101052.31;5012840;28;19925;-72
2021/09/29 08:37:27;;;;;;;;;;;;;;;15.39;100.00;101045.53;5005142;28;20391;-72
2021/09/29 08:39:59;;;;;;;;;;;;;;;15.51;100.00;101043.50;5004339;28;19938;-72
2021/09/29 08:42:31;;;;;;;;;;;;;;;15.62;100.00;101039.69;4997317;28;19980;-72
2021/09/29 08:45:00;;;;;;;;;;;;;;;15.63;100.00;101037.81;5008567;28;19929;-72
2021/09/29 08:47:31;;;;;;;;;;;;;;;15.65;100.00;101033.06;4999991;28;19969;-72
2021/09/29 08:50:07;;;;;;;;;;;;;;;15.66;100.00;101046.59;4999981;28;19930;-71
2021/09/29 08:52:57;;;;;;;;;;;;;;;15.50;100.00;101033.56;5009887;28;20303;-72
2021/09/29 08:55:47;;;;;;;;;;;;;;;15.51;100.00;101043.50;5027256;28;20390;-72
2021/09/29 09:15:21;;;;;;;;;;;;;;;15.39;100.00;101030.97;5003429;28;20038;-73
2021/09/29 09:17:48;;;;;;;;;;;;;;;15.38;100.00;101026.53;4992801;28;19925;-74
2021/09/29 09:20:17;;;;;;;;;;;;;;;15.33;100.00;101026.13;5006511;28;20016;-73
2021/09/29 09:22:48;;;;;;;;;;;;;;;15.27;100.00;101026.72;5008186;28;19936;-73
2021/09/29 09:25:14;;;;;;;;;;;;;;;15.25;100.00;101028.75;5008578;28;20020;-74
2021/09/29 09:27:41;;;;;;;;;;;;;;;15.28;100.00;101033.91;5012274;28;19940;-73
2021/09/29 09:30:08;;;;;;;;;;;;;;;15.31;100.00;101037.22;5011948;28;20016;-74
2021/09/29 09:32:42;;;;;;;;;;;;;;;15.34;100.00;101030.56;5010942;28;19931;-74
2021/09/29 09:35:11;;;;;;;;;;;;;;;15.34;100.00;101030.56;5003242;28;20028;-74
2021/09/29 09:37:38;;;;;;;;;;;;;;;15.34;100.00;101034.19;4997662;28;20397;-74
2021/09/29 09:40:07;;;;;;;;;;;;;;;15.35;100.00;101033.19;5003017;28;19945;-74
2021/09/29 09:42:38;;;;;;;;;;;;;;;15.34;100.00;101034.19;4992891;28;19930;-74
2021/09/29 09:45:05;;;;;;;;;;;;;;;15.33;100.00;101028.88;4992544;28;19925;-73
2021/09/29 09:47:37;;;;;;;;;;;;;;;15.30;100.00;101027.28;4993717;28;20013;-73
2021/09/29 09:50:04;;;;;;;;;;;;;;;15.28;100.00;101037.50;4992604;28;19972;-73
2021/09/29 09:52:31;;;;;;;;;;;;;;;15.26;100.00;101024.97;5005344;28;19944;-73
2021/09/29 09:55:01;;;;;;;;;;;;;;;15.21;100.00;101023.56;5008482;28;19933;-73
2021/09/29 09:57:28;;;;;;;;;;;;;;;15.14;100.00;101024.28;5000304;28;19972;-73
2021/09/29 09:59:55;;;;;;;;;;;;;;;15.05;100.00;101031.50;5005841;28;20286;-73
2021/09/29 10:02:21;;;;;;;;;;;;;;;14.99;100.00;101045.75;5012139;28;19936;-72
2021/09/29 10:04:48;;;;;;;;;;;;;;;14.89;100.00;101037.56;5010359;28;19925;-73
2021/09/29 10:07:15;;;;;;;;;;;;;;;14.77;100.00;101039.59;5008658;28;19968;-72
2021/09/29 10:09:45;;;;;;;;;;;;;;;14.63;100.00;101029.06;4981651;28;19940;-72
2021/09/29 10:12:21;;;;;;;;;;;;;;;14.46;100.00;101028.78;4997504;28;19976;-71
2021/09/29 10:23:12;;;;;;;;;;;;;;;13.96;100.00;101045.19;4999025;28;19933;-72
2021/09/29 10:26:09;;;;;;;;;;;;;;;13.87;100.00;101044.19;5002578;28;20448;-72
2021/09/29 10:28:38;;;;;;;;;;;;;;;13.81;100.00;101040.13;4997522;28;19933;-72
2021/09/29 10:31:15;;;;;;;;;;;;;;;13.75;100.00;101031.63;5011186;28;19929;-73
2021/09/29 10:33:43;;;;;;;;;;;;;;;13.72;100.00;101044.56;5011407;28;19934;-72
2021/09/29 10:36:21;;;;;;;;;;;;;;;13.66;100.00;101041.53;5010571;28;19926;-72
2021/09/29 10:41:49;;;;;;;;;;;;;;;13.48;100.00;101030.38;5010347;28;19926;-73
2021/09/29 10:44:22;;;;;;;;;;;;;;;13.47;100.00;101034.97;5009214;28;20027;-73
2021/09/29 10:46:56;;;;;;;;;;;;;;;13.35;100.00;101036.03;5010090;28;19925;-73
2021/09/29 10:49:52;;;;;;;;;;;;;;;13.31;100.00;101038.16;4995704;28;19996;-72
2021/09/29 11:09:14;;;;;;;;;;;;;;;13.06;100.00;101018.47;5013236;28;20393;-72
2021/09/29 11:11:56;;;;;;;;;;;;;;;13.01;100.00;101022.63;4995553;28;19960;-73
2021/09/29 11:30:52;;;;;;;;;;;;;;;12.72;100.00;101018.69;5000758;28;19926;-72
2021/09/29 11:33:29;;;;;;;;;;;;;;;12.75;100.00;101023.03;5012724;28;19933;-72
2021/09/29 11:36:06;;;;;;;;;;;;;;;12.72;100.00;101024.16;5006396;28;20287;-72
2021/09/29 11:39:10;;;;;;;;;;;;;;;12.68;100.00;101014.50;5010037;28;19933;-72
2021/09/29 12:09:10;;;;;;;;;;;;;;;12.59;100.00;100979.91;4994703;28;20366;-72
2021/09/29 12:11:45;;;;;;;;;;;;;;;12.59;100.00;100977.16;5000423;28;19925;-72
2021/09/29 12:14:14;;;;;;;;;;;;;;;12.62;100.00;100971.44;5014258;28;19948;-72
2021/09/29 12:16:41;;;;;;;;;;;;;;;12.65;100.00;100973.91;5013158;28;19948;-72
2021/09/29 12:19:09;;;;;;;;;;;;;;;12.64;100.00;100974.91;5012567;28;20373;-72
2021/09/29 12:21:40;;;;;;;;;;;;;;;12.62;100.00;100976.91;5005349;28;19976;-72
2021/09/29 12:24:09;;;;;;;;;;;;;;;12.63;100.00;100980.50;4992867;28;19930;-72
2021/09/29 12:26:44;;;;;;;;;;;;;;;12.57;100.00;100976.41;5001706;28;19925;-72
2021/09/29 12:29:21;;;;;;;;;;;;;;;12.51;100.00;100983.25;5013838;28;20373;-72
2021/09/29 12:31:57;;;;;;;;;;;;;;;12.44;100.00;100970.28;5011724;28;20294;-71
2021/09/29 12:34:30;;;;;;;;;;;;;;;12.44;100.00;100976.63;5013798;28;19932;-71
2021/09/29 12:37:07;;;;;;;;;;;;;;;12.41;100.00;100971.41;4997657;28;19930;-71
2021/09/29 12:39:34;;;;;;;;;;;;;;;12.42;100.00;100988.63;4994334;28;20028;-72
2021/09/29 12:42:01;;;;;;;;;;;;;;;12.45;100.00;100972.03;4995188;28;19925;-71
2021/09/29 12:44:27;;;;;;;;;;;;;;;12.46;100.00;100957.44;5007620;28;20361;-71
2021/09/29 12:47:03;;;;;;;;;;;;;;;12.51;100.00;100966.94;4994947;28;20305;-71
2021/09/29 12:49:29;;;;;;;;;;;;;;;12.61;100.00;100966.13;5000053;28;19965;-71
2021/09/29 12:52:00;;;;;;;;;;;;;;;12.70;100.00;100959.91;5004325;28;20114;-71
2021/09/29 12:54:26;;;;;;;;;;;;;;;12.83;100.00;100968.72;4994650;28;19951;-71
2021/09/29 12:56:54;;;;;;;;;;;;;;;12.96;100.00;100962.19;5010370;28;20472;-71
2021/09/29 12:59:20;;;;;;;;;;;;;;;13.11;100.00;100954.53;5004438;28;20472;-71
2021/09/29 13:01:46;;;;;;;;;;;;;;;13.27;100.00;100954.03;4994463;28;20370;-71
2021/09/29 13:04:12;;;;;;;;;;;;;;;13.31;100.00;100963.66;5004928;28;20298;-71
2021/09/29 13:06:39;;;;;;;;;;;;;;;13.26;100.00;100968.69;4992416;28;19932;-72
2021/09/29 13:09:05;;;;;;;;;;;;;;;13.28;100.00;100963.94;4995984;28;19926;-72
2021/09/29 13:11:31;;;;;;;;;;;;;;;13.23;100.00;100961.66;5008233;28;20016;-72
2021/09/29 13:13:59;;;;;;;;;;;;;;;13.29;100.00;100960.22;5012608;28;20024;-72
2021/09/29 13:16:26;;;;;;;;;;;;;;;13.19;100.00;100965.66;5006491;28;19925;-72
2021/09/29 13:18:58;;;;;;;;;;;;;;;13.16;100.00;100969.50;4993062;28;19936;-72
2021/09/29 13:21:29;;;;;;;;;;;;;;;13.16;100.00;100969.50;5001492;28;20340;-72
2021/09/29 13:23:58;;;;;;;;;;;;;;;13.20;100.00;100961.91;5004020;28;19957;-72
2021/09/29 13:37:20;;;;;;;;;;;;;;;13.54;100.00;100972.56;5012516;28;19933;-72
2021/09/29 13:39:47;;;;;;;;;;;;;;;13.52;100.00;100978.16;5007315;28;20016;-71
2021/09/29 13:42:15;;;;;;;;;;;;;;;13.51;100.00;100970.97;5004406;28;19926;-71
2021/09/29 13:44:42;;;;;;;;;;;;;;;13.45;100.00;100965.22;4992515;28;19932;-72
2021/09/29 13:47:09;;;;;;;;;;;;;;;13.48;100.00;100965.81;4997559;28;19932;-72
2021/09/29 13:49:35;;;;;;;;;;;;;;;13.47;100.00;100969.53;5012229;28;20353;-72
2021/09/29 13:52:02;;;;;;;;;;;;;;;13.48;100.00;100968.53;5010358;28;19997;-72
2021/09/29 13:54:29;;;;;;;;;;;;;;;13.49;100.00;100970.22;5012287;28;20276;-72
2021/09/29 13:56:58;;;;;;;;;;;;;;;13.51;100.00;100975.56;5010516;28;20024;-72
2021/09/29 13:59:41;;;;;;;;;;;;;;;13.63;100.00;100979.03;5010453;28;19925;-72
2021/09/29 14:29:48;;;;;;;;;;;;;;;15.13;100.00;100962.44;4993853;28;20341;-71
2021/09/29 14:32:19;;;;;;;;;;;;;;;15.05;100.00;100961.28;4993110;28;20393;-71
2021/09/29 14:34:47;;;;;;;;;;;;;;;14.96;100.00;100955.84;5009569;28;20316;-71
2021/09/29 14:37:14;;;;;;;;;;;;;;;14.95;100.00;100956.84;4998028;28;20282;-71
2021/09/29 14:39:41;;;;;;;;;;;;;;;14.99;100.00;100963.75;5009298;28;19971;-71
2021/09/29 14:42:07;;;;;;;;;;;;;;;14.96;100.00;100962.16;5027072;28;20012;-71